sensor_id;sensor_type;location;lat;lon;timestamp;P1;durP1;ratioP1;P2;durP2;ratioP2
37655;SDS011;23498;50.958;3.124;2023-12-28T00:00:35;4.65;;;2.80;;
37655;SDS011;23498;50.958;3.124;2023-12-28T00:03:11;8.75;;;3.17;;
37655;SDS011;23498;50.958;3.124;2023-12-28T00:05:58;6.72;;;2.70;;
37655;SDS011;23498;50.958;3.124;2023-12-28T00:08:52;5.18;;;2.70;;
37655;SDS011;23498;50.958;3.124;2023-12-28T00:11:35;4.93;;;2.72;;
37655;SDS011;23498;50.958;3.124;2023-12-28T00:14:06;5.50;;;2.90;;
37655;SDS011;23498;50.958;3.124;2023-12-28T00:16:36;6.15;;;3.03;;
37655;SDS011;23498;50.958;3.124;2023-12-28T00:19:05;5.18;;;2.63;;
37655;SDS011;23498;50.958;3.124;2023-12-28T00:21:34;10.13;;;3.20;;
37655;SDS011;23498;50.958;3.124;2023-12-28T00:24:20;6.28;;;2.80;;
37655;SDS011;23498;50.958;3.124;2023-12-28T00:29:53;6.05;;;2.65;;
37655;SDS011;23498;50.958;3.124;2023-12-28T00:32:21;4.35;;;2.67;;
37655;SDS011;23498;50.958;3.124;2023-12-28T00:34:53;5.93;;;2.80;;
37655;SDS011;23498;50.958;3.124;2023-12-28T00:37:29;7.22;;;2.83;;
37655;SDS011;23498;50.958;3.124;2023-12-28T00:39:55;5.65;;;2.63;;
37655;SDS011;23498;50.958;3.124;2023-12-28T00:42:26;4.90;;;2.50;;
37655;SDS011;23498;50.958;3.124;2023-12-28T00:45:09;6.80;;;2.63;;
37655;SDS011;23498;50.958;3.124;2023-12-28T00:47:37;6.40;;;2.85;;
37655;SDS011;23498;50.958;3.124;2023-12-28T00:50:13;8.43;;;3.08;;
37655;SDS011;23498;50.958;3.124;2023-12-28T00:52:47;5.97;;;2.60;;
37655;SDS011;23498;50.958;3.124;2023-12-28T00:55:13;6.13;;;2.63;;
37655;SDS011;23498;50.958;3.124;2023-12-28T00:57:49;4.60;;;2.85;;
37655;SDS011;23498;50.958;3.124;2023-12-28T01:00:32;5.35;;;2.97;;
37655;SDS011;23498;50.958;3.124;2023-12-28T01:03:18;5.80;;;2.67;;
37655;SDS011;23498;50.958;3.124;2023-12-28T01:05:52;5.82;;;2.85;;
37655;SDS011;23498;50.958;3.124;2023-12-28T01:08:26;5.75;;;2.88;;
37655;SDS011;23498;50.958;3.124;2023-12-28T01:10:57;6.00;;;2.67;;
37655;SDS011;23498;50.958;3.124;2023-12-28T01:13:28;7.72;;;3.15;;
37655;SDS011;23498;50.958;3.124;2023-12-28T01:16:04;6.13;;;2.70;;
37655;SDS011;23498;50.958;3.124;2023-12-28T01:18:33;7.75;;;2.58;;
37655;SDS011;23498;50.958;3.124;2023-12-28T01:20:59;8.80;;;2.88;;
37655;SDS011;23498;50.958;3.124;2023-12-28T01:23:35;6.70;;;2.50;;
37655;SDS011;23498;50.958;3.124;2023-12-28T01:26:29;8.18;;;2.80;;
37655;SDS011;23498;50.958;3.124;2023-12-28T01:29:02;4.38;;;2.50;;
37655;SDS011;23498;50.958;3.124;2023-12-28T01:31:42;6.80;;;2.40;;
37655;SDS011;23498;50.958;3.124;2023-12-28T01:34:12;4.93;;;2.28;;
37655;SDS011;23498;50.958;3.124;2023-12-28T01:36:41;6.75;;;2.58;;
37655;SDS011;23498;50.958;3.124;2023-12-28T01:39:09;6.13;;;2.53;;
37655;SDS011;23498;50.958;3.124;2023-12-28T01:41:43;5.18;;;2.35;;
37655;SDS011;23498;50.958;3.124;2023-12-28T01:46:40;6.13;;;2.28;;
37655;SDS011;23498;50.958;3.124;2023-12-28T01:52:20;6.18;;;2.08;;
37655;SDS011;23498;50.958;3.124;2023-12-28T01:55:04;7.28;;;2.53;;
37655;SDS011;23498;50.958;3.124;2023-12-28T02:00:32;5.75;;;1.95;;
37655;SDS011;23498;50.958;3.124;2023-12-28T02:03:06;8.23;;;2.50;;
37655;SDS011;23498;50.958;3.124;2023-12-28T02:05:47;5.47;;;2.15;;
37655;SDS011;23498;50.958;3.124;2023-12-28T02:08:26;7.70;;;2.13;;
37655;SDS011;23498;50.958;3.124;2023-12-28T02:10:57;7.45;;;1.80;;
37655;SDS011;23498;50.958;3.124;2023-12-28T02:13:43;10.60;;;2.53;;
37655;SDS011;23498;50.958;3.124;2023-12-28T02:16:33;6.97;;;2.10;;
37655;SDS011;23498;50.958;3.124;2023-12-28T02:19:09;7.10;;;1.92;;
37655;SDS011;23498;50.958;3.124;2023-12-28T02:21:39;7.35;;;2.20;;
37655;SDS011;23498;50.958;3.124;2023-12-28T02:24:11;6.60;;;2.22;;
37655;SDS011;23498;50.958;3.124;2023-12-28T02:35:32;8.45;;;2.28;;
37655;SDS011;23498;50.958;3.124;2023-12-28T02:38:10;6.55;;;1.60;;
37655;SDS011;23498;50.958;3.124;2023-12-28T02:40:57;8.82;;;1.80;;
37655;SDS011;23498;50.958;3.124;2023-12-28T02:43:26;8.15;;;2.00;;
37655;SDS011;23498;50.958;3.124;2023-12-28T02:46:02;9.60;;;1.98;;
37655;SDS011;23498;50.958;3.124;2023-12-28T02:48:36;5.57;;;1.40;;
37655;SDS011;23498;50.958;3.124;2023-12-28T02:51:07;11.45;;;2.22;;
37655;SDS011;23498;50.958;3.124;2023-12-28T02:53:33;7.18;;;2.05;;
37655;SDS011;23498;50.958;3.124;2023-12-28T02:56:01;7.82;;;1.83;;
37655;SDS011;23498;50.958;3.124;2023-12-28T02:58:32;13.02;;;2.55;;
37655;SDS011;23498;50.958;3.124;2023-12-28T03:01:03;9.45;;;1.65;;
37655;SDS011;23498;50.958;3.124;2023-12-28T03:03:46;7.90;;;1.77;;
37655;SDS011;23498;50.958;3.124;2023-12-28T03:06:12;9.52;;;2.75;;
37655;SDS011;23498;50.958;3.124;2023-12-28T03:08:41;6.97;;;1.75;;
37655;SDS011;23498;50.958;3.124;2023-12-28T03:11:11;10.75;;;2.03;;
37655;SDS011;23498;50.958;3.124;2023-12-28T03:13:40;7.35;;;1.73;;
37655;SDS011;23498;50.958;3.124;2023-12-28T03:16:21;12.68;;;1.90;;
37655;SDS011;23498;50.958;3.124;2023-12-28T03:18:49;9.23;;;1.90;;
37655;SDS011;23498;50.958;3.124;2023-12-28T03:21:18;9.52;;;2.00;;
37655;SDS011;23498;50.958;3.124;2023-12-28T03:23:56;8.18;;;1.73;;
37655;SDS011;23498;50.958;3.124;2023-12-28T03:26:27;10.07;;;1.80;;
37655;SDS011;23498;50.958;3.124;2023-12-28T03:28:53;11.05;;;1.80;;
37655;SDS011;23498;50.958;3.124;2023-12-28T03:31:38;9.40;;;1.80;;
37655;SDS011;23498;50.958;3.124;2023-12-28T03:34:11;9.57;;;1.70;;
37655;SDS011;23498;50.958;3.124;2023-12-28T03:36:40;12.90;;;2.03;;
37655;SDS011;23498;50.958;3.124;2023-12-28T03:39:23;15.25;;;2.13;;
37655;SDS011;23498;50.958;3.124;2023-12-28T03:41:52;10.20;;;2.45;;
37655;SDS011;23498;50.958;3.124;2023-12-28T03:44:28;8.88;;;2.10;;
37655;SDS011;23498;50.958;3.124;2023-12-28T03:47:02;7.85;;;2.20;;
37655;SDS011;23498;50.958;3.124;2023-12-28T03:49:31;9.30;;;1.70;;
37655;SDS011;23498;50.958;3.124;2023-12-28T03:51:59;8.93;;;1.95;;
37655;SDS011;23498;50.958;3.124;2023-12-28T03:54:25;11.05;;;1.50;;
37655;SDS011;23498;50.958;3.124;2023-12-28T03:56:54;12.32;;;1.90;;
37655;SDS011;23498;50.958;3.124;2023-12-28T03:59:29;11.15;;;2.00;;
37655;SDS011;23498;50.958;3.124;2023-12-28T04:01:58;11.23;;;2.42;;
37655;SDS011;23498;50.958;3.124;2023-12-28T04:04:27;10.13;;;2.13;;
37655;SDS011;23498;50.958;3.124;2023-12-28T04:06:55;14.32;;;2.30;;
37655;SDS011;23498;50.958;3.124;2023-12-28T04:09:34;10.70;;;2.38;;
37655;SDS011;23498;50.958;3.124;2023-12-28T04:12:03;7.20;;;1.63;;
37655;SDS011;23498;50.958;3.124;2023-12-28T04:14:29;8.50;;;1.73;;
37655;SDS011;23498;50.958;3.124;2023-12-28T04:17:05;10.48;;;2.05;;
37655;SDS011;23498;50.958;3.124;2023-12-28T04:19:41;9.90;;;2.25;;
37655;SDS011;23498;50.958;3.124;2023-12-28T04:22:15;13.32;;;2.40;;
37655;SDS011;23498;50.958;3.124;2023-12-28T04:24:43;9.88;;;2.08;;
37655;SDS011;23498;50.958;3.124;2023-12-28T04:27:12;17.13;;;2.30;;
37655;SDS011;23498;50.958;3.124;2023-12-28T04:29:53;9.98;;;2.10;;
37655;SDS011;23498;50.958;3.124;2023-12-28T04:32:35;18.13;;;2.42;;
37655;SDS011;23498;50.958;3.124;2023-12-28T04:35:04;9.63;;;2.35;;
37655;SDS011;23498;50.958;3.124;2023-12-28T04:37:35;10.85;;;2.17;;
37655;SDS011;23498;50.958;3.124;2023-12-28T04:40:09;12.68;;;2.35;;
37655;SDS011;23498;50.958;3.124;2023-12-28T04:42:49;13.73;;;2.00;;
37655;SDS011;23498;50.958;3.124;2023-12-28T04:45:23;12.32;;;2.25;;
37655;SDS011;23498;50.958;3.124;2023-12-28T04:47:57;10.35;;;2.15;;
37655;SDS011;23498;50.958;3.124;2023-12-28T04:50:28;14.85;;;2.47;;
37655;SDS011;23498;50.958;3.124;2023-12-28T04:52:56;15.00;;;2.63;;
37655;SDS011;23498;50.958;3.124;2023-12-28T04:55:32;12.05;;;2.22;;
37655;SDS011;23498;50.958;3.124;2023-12-28T04:58:13;14.23;;;2.30;;
37655;SDS011;23498;50.958;3.124;2023-12-28T05:00:51;11.10;;;1.85;;
37655;SDS011;23498;50.958;3.124;2023-12-28T05:03:32;14.93;;;2.45;;
37655;SDS011;23498;50.958;3.124;2023-12-28T05:06:07;13.23;;;2.30;;
37655;SDS011;23498;50.958;3.124;2023-12-28T05:08:36;10.35;;;2.00;;
37655;SDS011;23498;50.958;3.124;2023-12-28T05:11:17;11.32;;;2.05;;
37655;SDS011;23498;50.958;3.124;2023-12-28T05:13:48;14.30;;;2.75;;
37655;SDS011;23498;50.958;3.124;2023-12-28T05:16:20;11.15;;;1.83;;
37655;SDS011;23498;50.958;3.124;2023-12-28T05:19:03;15.15;;;2.40;;
37655;SDS011;23498;50.958;3.124;2023-12-28T05:21:32;12.82;;;2.20;;
37655;SDS011;23498;50.958;3.124;2023-12-28T05:24:05;16.92;;;2.35;;
37655;SDS011;23498;50.958;3.124;2023-12-28T05:26:41;12.30;;;2.25;;
37655;SDS011;23498;50.958;3.124;2023-12-28T05:29:16;13.45;;;2.00;;
37655;SDS011;23498;50.958;3.124;2023-12-28T05:31:45;10.90;;;2.28;;
37655;SDS011;23498;50.958;3.124;2023-12-28T05:34:12;13.30;;;2.63;;
37655;SDS011;23498;50.958;3.124;2023-12-28T05:36:42;11.07;;;2.05;;
37655;SDS011;23498;50.958;3.124;2023-12-28T05:39:16;16.20;;;2.17;;
37655;SDS011;23498;50.958;3.124;2023-12-28T05:41:42;14.38;;;2.13;;
37655;SDS011;23498;50.958;3.124;2023-12-28T05:44:16;10.10;;;2.00;;
37655;SDS011;23498;50.958;3.124;2023-12-28T05:46:45;13.02;;;2.47;;
37655;SDS011;23498;50.958;3.124;2023-12-28T05:49:11;13.00;;;2.25;;
37655;SDS011;23498;50.958;3.124;2023-12-28T05:51:38;12.10;;;2.20;;
37655;SDS011;23498;50.958;3.124;2023-12-28T05:54:16;16.00;;;2.50;;
37655;SDS011;23498;50.958;3.124;2023-12-28T05:56:45;13.82;;;2.20;;
37655;SDS011;23498;50.958;3.124;2023-12-28T05:59:11;14.02;;;2.40;;
37655;SDS011;23498;50.958;3.124;2023-12-28T06:01:43;10.90;;;1.90;;
37655;SDS011;23498;50.958;3.124;2023-12-28T06:06:56;14.93;;;2.20;;
37655;SDS011;23498;50.958;3.124;2023-12-28T06:09:30;15.25;;;2.60;;
37655;SDS011;23498;50.958;3.124;2023-12-28T06:11:58;14.38;;;2.20;;
37655;SDS011;23498;50.958;3.124;2023-12-28T06:14:27;12.23;;;2.40;;
37655;SDS011;23498;50.958;3.124;2023-12-28T06:17:13;17.13;;;3.13;;
37655;SDS011;23498;50.958;3.124;2023-12-28T06:19:47;18.13;;;2.67;;
37655;SDS011;23498;50.958;3.124;2023-12-28T06:22:15;14.18;;;2.15;;
37655;SDS011;23498;50.958;3.124;2023-12-28T06:24:52;13.57;;;1.90;;
37655;SDS011;23498;50.958;3.124;2023-12-28T06:27:23;14.52;;;2.50;;
37655;SDS011;23498;50.958;3.124;2023-12-28T06:29:55;17.80;;;2.50;;
37655;SDS011;23498;50.958;3.124;2023-12-28T06:32:28;16.00;;;2.45;;
37655;SDS011;23498;50.958;3.124;2023-12-28T06:34:54;11.05;;;2.28;;
37655;SDS011;23498;50.958;3.124;2023-12-28T06:37:25;17.30;;;2.70;;
37655;SDS011;23498;50.958;3.124;2023-12-28T06:45:13;16.63;;;2.60;;
37655;SDS011;23498;50.958;3.124;2023-12-28T06:47:44;17.58;;;3.08;;
37655;SDS011;23498;50.958;3.124;2023-12-28T06:50:20;14.15;;;2.47;;
37655;SDS011;23498;50.958;3.124;2023-12-28T06:52:51;12.48;;;2.25;;
37655;SDS011;23498;50.958;3.124;2023-12-28T06:55:51;13.38;;;2.65;;
37655;SDS011;23498;50.958;3.124;2023-12-28T06:58:44;16.83;;;2.67;;
37655;SDS011;23498;50.958;3.124;2023-12-28T07:01:39;18.30;;;2.63;;
37655;SDS011;23498;50.958;3.124;2023-12-28T07:04:15;15.50;;;2.50;;
37655;SDS011;23498;50.958;3.124;2023-12-28T07:06:44;16.27;;;2.78;;
37655;SDS011;23498;50.958;3.124;2023-12-28T07:09:26;16.55;;;2.75;;
37655;SDS011;23498;50.958;3.124;2023-12-28T07:12:02;13.48;;;2.50;;
37655;SDS011;23498;50.958;3.124;2023-12-28T07:14:49;16.23;;;2.80;;
37655;SDS011;23498;50.958;3.124;2023-12-28T07:17:17;13.82;;;2.40;;
37655;SDS011;23498;50.958;3.124;2023-12-28T07:19:55;15.13;;;2.15;;
37655;SDS011;23498;50.958;3.124;2023-12-28T07:22:24;15.90;;;2.70;;
37655;SDS011;23498;50.958;3.124;2023-12-28T07:24:53;13.70;;;2.40;;
37655;SDS011;23498;50.958;3.124;2023-12-28T07:27:33;13.60;;;2.28;;
37655;SDS011;23498;50.958;3.124;2023-12-28T07:30:02;16.10;;;2.35;;
37655;SDS011;23498;50.958;3.124;2023-12-28T07:32:31;14.30;;;2.50;;
37655;SDS011;23498;50.958;3.124;2023-12-28T07:34:58;14.40;;;2.50;;
37655;SDS011;23498;50.958;3.124;2023-12-28T07:37:33;15.02;;;2.15;;
37655;SDS011;23498;50.958;3.124;2023-12-28T07:40:14;17.65;;;2.33;;
37655;SDS011;23498;50.958;3.124;2023-12-28T07:42:40;14.25;;;2.35;;
37655;SDS011;23498;50.958;3.124;2023-12-28T07:45:09;15.65;;;2.47;;
37655;SDS011;23498;50.958;3.124;2023-12-28T07:47:44;17.35;;;2.50;;
37655;SDS011;23498;50.958;3.124;2023-12-28T07:50:11;14.30;;;2.30;;
37655;SDS011;23498;50.958;3.124;2023-12-28T07:52:37;16.10;;;2.97;;
37655;SDS011;23498;50.958;3.124;2023-12-28T07:55:05;16.27;;;2.45;;
37655;SDS011;23498;50.958;3.124;2023-12-28T07:57:46;11.05;;;2.20;;
37655;SDS011;23498;50.958;3.124;2023-12-28T08:00:15;19.45;;;3.30;;
37655;SDS011;23498;50.958;3.124;2023-12-28T08:02:46;11.85;;;2.03;;
37655;SDS011;23498;50.958;3.124;2023-12-28T08:05:20;16.90;;;2.95;;
37655;SDS011;23498;50.958;3.124;2023-12-28T08:07:47;17.83;;;3.15;;
37655;SDS011;23498;50.958;3.124;2023-12-28T08:10:13;9.77;;;2.28;;
37655;SDS011;23498;50.958;3.124;2023-12-28T08:12:39;12.55;;;3.00;;
37655;SDS011;23498;50.958;3.124;2023-12-28T08:15:10;16.08;;;3.28;;
37655;SDS011;23498;50.958;3.124;2023-12-28T08:17:43;14.65;;;2.70;;
37655;SDS011;23498;50.958;3.124;2023-12-28T08:20:12;13.07;;;2.22;;
37655;SDS011;23498;50.958;3.124;2023-12-28T08:22:38;19.13;;;2.88;;
37655;SDS011;23498;50.958;3.124;2023-12-28T08:25:07;15.10;;;2.72;;
37655;SDS011;23498;50.958;3.124;2023-12-28T08:27:35;15.85;;;2.67;;
37655;SDS011;23498;50.958;3.124;2023-12-28T08:30:04;15.93;;;2.13;;
37655;SDS011;23498;50.958;3.124;2023-12-28T08:32:31;13.00;;;2.80;;
37655;SDS011;23498;50.958;3.124;2023-12-28T08:34:57;14.50;;;3.28;;
37655;SDS011;23498;50.958;3.124;2023-12-28T08:37:26;12.82;;;2.55;;
37655;SDS011;23498;50.958;3.124;2023-12-28T08:39:52;13.00;;;2.35;;
37655;SDS011;23498;50.958;3.124;2023-12-28T08:42:20;13.60;;;2.30;;
37655;SDS011;23498;50.958;3.124;2023-12-28T08:44:50;14.10;;;3.05;;
37655;SDS011;23498;50.958;3.124;2023-12-28T08:47:17;15.25;;;2.72;;
37655;SDS011;23498;50.958;3.124;2023-12-28T08:49:46;16.48;;;2.90;;
37655;SDS011;23498;50.958;3.124;2023-12-28T08:52:15;13.80;;;2.63;;
37655;SDS011;23498;50.958;3.124;2023-12-28T08:54:43;11.98;;;2.95;;
37655;SDS011;23498;50.958;3.124;2023-12-28T08:57:11;21.63;;;3.22;;
37655;SDS011;23498;50.958;3.124;2023-12-28T08:59:47;13.55;;;2.70;;
37655;SDS011;23498;50.958;3.124;2023-12-28T09:02:16;17.00;;;2.83;;
37655;SDS011;23498;50.958;3.124;2023-12-28T09:04:46;13.13;;;2.67;;
37655;SDS011;23498;50.958;3.124;2023-12-28T09:07:13;13.13;;;2.95;;
37655;SDS011;23498;50.958;3.124;2023-12-28T09:09:39;13.68;;;2.42;;
37655;SDS011;23498;50.958;3.124;2023-12-28T09:12:07;16.90;;;3.67;;
37655;SDS011;23498;50.958;3.124;2023-12-28T09:14:43;12.32;;;2.83;;
37655;SDS011;23498;50.958;3.124;2023-12-28T09:17:09;17.13;;;4.25;;
37655;SDS011;23498;50.958;3.124;2023-12-28T09:19:42;15.50;;;2.83;;
37655;SDS011;23498;50.958;3.124;2023-12-28T09:22:11;13.70;;;2.83;;
37655;SDS011;23498;50.958;3.124;2023-12-28T09:24:37;11.30;;;2.50;;
37655;SDS011;23498;50.958;3.124;2023-12-28T09:27:05;10.23;;;2.35;;
37655;SDS011;23498;50.958;3.124;2023-12-28T09:29:34;15.35;;;2.72;;
37655;SDS011;23498;50.958;3.124;2023-12-28T09:32:00;14.00;;;2.90;;
37655;SDS011;23498;50.958;3.124;2023-12-28T09:34:26;16.00;;;3.10;;
37655;SDS011;23498;50.958;3.124;2023-12-28T09:37:00;18.75;;;2.92;;
37655;SDS011;23498;50.958;3.124;2023-12-28T09:39:31;22.02;;;3.63;;
37655;SDS011;23498;50.958;3.124;2023-12-28T09:44:46;17.10;;;2.75;;
37655;SDS011;23498;50.958;3.124;2023-12-28T09:47:17;15.40;;;2.85;;
37655;SDS011;23498;50.958;3.124;2023-12-28T09:49:46;15.40;;;2.80;;
37655;SDS011;23498;50.958;3.124;2023-12-28T09:52:35;16.17;;;3.30;;
37655;SDS011;23498;50.958;3.124;2023-12-28T09:55:03;18.85;;;3.00;;
37655;SDS011;23498;50.958;3.124;2023-12-28T09:57:39;14.60;;;3.30;;
37655;SDS011;23498;50.958;3.124;2023-12-28T10:00:09;16.58;;;3.55;;
37655;SDS011;23498;50.958;3.124;2023-12-28T10:02:53;14.38;;;2.80;;
37655;SDS011;23498;50.958;3.124;2023-12-28T10:05:55;11.80;;;2.13;;
37655;SDS011;23498;50.958;3.124;2023-12-28T10:08:24;9.90;;;2.25;;
37655;SDS011;23498;50.958;3.124;2023-12-28T10:10:57;15.05;;;2.90;;
37655;SDS011;23498;50.958;3.124;2023-12-28T10:13:28;17.15;;;3.00;;
37655;SDS011;23498;50.958;3.124;2023-12-28T10:16:13;16.77;;;2.95;;
37655;SDS011;23498;50.958;3.124;2023-12-28T10:18:59;17.30;;;2.60;;
37655;SDS011;23498;50.958;3.124;2023-12-28T10:21:51;14.65;;;2.88;;
37655;SDS011;23498;50.958;3.124;2023-12-28T10:24:27;15.50;;;2.47;;
37655;SDS011;23498;50.958;3.124;2023-12-28T10:26:58;13.10;;;2.30;;
37655;SDS011;23498;50.958;3.124;2023-12-28T10:29:31;16.20;;;2.38;;
37655;SDS011;23498;50.958;3.124;2023-12-28T10:32:00;15.90;;;2.83;;
37655;SDS011;23498;50.958;3.124;2023-12-28T10:34:28;15.27;;;2.53;;
37655;SDS011;23498;50.958;3.124;2023-12-28T10:37:17;17.85;;;2.70;;
37655;SDS011;23498;50.958;3.124;2023-12-28T10:39:58;18.45;;;2.92;;
37655;SDS011;23498;50.958;3.124;2023-12-28T10:42:41;18.50;;;2.55;;
37655;SDS011;23498;50.958;3.124;2023-12-28T10:45:09;19.05;;;2.30;;
37655;SDS011;23498;50.958;3.124;2023-12-28T10:47:42;13.98;;;3.03;;
37655;SDS011;23498;50.958;3.124;2023-12-28T10:50:10;14.80;;;3.17;;
37655;SDS011;23498;50.958;3.124;2023-12-28T10:52:41;16.63;;;3.22;;
37655;SDS011;23498;50.958;3.124;2023-12-28T11:00:30;14.95;;;2.75;;
37655;SDS011;23498;50.958;3.124;2023-12-28T11:03:02;12.25;;;2.33;;
37655;SDS011;23498;50.958;3.124;2023-12-28T11:05:35;14.43;;;2.70;;
37655;SDS011;23498;50.958;3.124;2023-12-28T11:08:10;17.27;;;3.10;;
37655;SDS011;23498;50.958;3.124;2023-12-28T11:10:44;17.98;;;3.03;;
37655;SDS011;23498;50.958;3.124;2023-12-28T11:15:59;14.57;;;2.92;;
37655;SDS011;23498;50.958;3.124;2023-12-28T11:18:26;15.43;;;3.03;;
37655;SDS011;23498;50.958;3.124;2023-12-28T11:21:02;12.55;;;3.10;;
37655;SDS011;23498;50.958;3.124;2023-12-28T11:23:39;18.05;;;3.08;;
37655;SDS011;23498;50.958;3.124;2023-12-28T11:26:16;15.63;;;2.80;;
37655;SDS011;23498;50.958;3.124;2023-12-28T11:29:00;16.05;;;3.13;;
37655;SDS011;23498;50.958;3.124;2023-12-28T11:31:58;13.45;;;2.60;;
37655;SDS011;23498;50.958;3.124;2023-12-28T11:34:35;15.73;;;2.43;;
37655;SDS011;23498;50.958;3.124;2023-12-28T11:37:14;13.43;;;2.65;;
37655;SDS011;23498;50.958;3.124;2023-12-28T11:39:52;11.50;;;2.35;;
37655;SDS011;23498;50.958;3.124;2023-12-28T11:42:47;14.57;;;2.60;;
37655;SDS011;23498;50.958;3.124;2023-12-28T11:45:18;13.90;;;3.38;;
37655;SDS011;23498;50.958;3.124;2023-12-28T11:47:54;18.73;;;3.05;;
37655;SDS011;23498;50.958;3.124;2023-12-28T11:50:28;15.25;;;3.15;;
37655;SDS011;23498;50.958;3.124;2023-12-28T11:52:54;16.88;;;3.20;;
37655;SDS011;23498;50.958;3.124;2023-12-28T11:55:28;18.63;;;3.22;;
37655;SDS011;23498;50.958;3.124;2023-12-28T11:58:35;19.48;;;3.22;;
37655;SDS011;23498;50.958;3.124;2023-12-28T12:01:03;13.95;;;2.65;;
37655;SDS011;23498;50.958;3.124;2023-12-28T12:03:32;15.98;;;2.67;;
37655;SDS011;23498;50.958;3.124;2023-12-28T12:06:00;19.52;;;2.97;;
37655;SDS011;23498;50.958;3.124;2023-12-28T12:08:46;13.65;;;2.80;;
37655;SDS011;23498;50.958;3.124;2023-12-28T12:11:22;18.75;;;2.72;;
37655;SDS011;23498;50.958;3.124;2023-12-28T12:13:51;15.95;;;2.53;;
37655;SDS011;23498;50.958;3.124;2023-12-28T12:16:17;16.02;;;2.80;;
37655;SDS011;23498;50.958;3.124;2023-12-28T12:18:46;14.23;;;2.50;;
37655;SDS011;23498;50.958;3.124;2023-12-28T12:21:12;12.88;;;2.42;;
37655;SDS011;23498;50.958;3.124;2023-12-28T12:23:56;10.77;;;2.60;;
37655;SDS011;23498;50.958;3.124;2023-12-28T12:26:26;14.57;;;3.33;;
37655;SDS011;23498;50.958;3.124;2023-12-28T12:28:55;13.80;;;2.58;;
37655;SDS011;23498;50.958;3.124;2023-12-28T12:31:25;20.13;;;3.83;;
37655;SDS011;23498;50.958;3.124;2023-12-28T12:33:54;11.43;;;2.50;;
37655;SDS011;23498;50.958;3.124;2023-12-28T12:36:20;17.98;;;2.40;;
37655;SDS011;23498;50.958;3.124;2023-12-28T12:39:16;12.68;;;3.00;;
37655;SDS011;23498;50.958;3.124;2023-12-28T12:41:52;14.00;;;2.42;;
37655;SDS011;23498;50.958;3.124;2023-12-28T12:44:22;16.05;;;3.42;;
37655;SDS011;23498;50.958;3.124;2023-12-28T12:46:57;16.58;;;2.70;;
37655;SDS011;23498;50.958;3.124;2023-12-28T12:49:29;14.85;;;2.95;;
37655;SDS011;23498;50.958;3.124;2023-12-28T12:52:12;20.05;;;4.40;;
37655;SDS011;23498;50.958;3.124;2023-12-28T12:54:55;18.02;;;3.38;;
37655;SDS011;23498;50.958;3.124;2023-12-28T12:57:27;17.15;;;3.13;;
37655;SDS011;23498;50.958;3.124;2023-12-28T13:00:04;16.65;;;2.75;;
37655;SDS011;23498;50.958;3.124;2023-12-28T13:02:36;15.70;;;2.63;;
37655;SDS011;23498;50.958;3.124;2023-12-28T13:05:04;17.55;;;3.38;;
37655;SDS011;23498;50.958;3.124;2023-12-28T13:07:38;12.95;;;2.58;;
37655;SDS011;23498;50.958;3.124;2023-12-28T13:10:07;18.08;;;2.97;;
37655;SDS011;23498;50.958;3.124;2023-12-28T13:12:36;14.43;;;2.78;;
37655;SDS011;23498;50.958;3.124;2023-12-28T13:15:02;19.00;;;3.45;;
37655;SDS011;23498;50.958;3.124;2023-12-28T13:17:34;13.35;;;2.55;;
37655;SDS011;23498;50.958;3.124;2023-12-28T13:23:07;17.13;;;3.05;;
37655;SDS011;23498;50.958;3.124;2023-12-28T13:25:40;18.55;;;2.83;;
37655;SDS011;23498;50.958;3.124;2023-12-28T13:28:26;14.55;;;3.60;;
37655;SDS011;23498;50.958;3.124;2023-12-28T13:30:57;15.82;;;3.25;;
37655;SDS011;23498;50.958;3.124;2023-12-28T13:33:28;17.58;;;3.25;;
37655;SDS011;23498;50.958;3.124;2023-12-28T13:35:55;14.30;;;2.33;;
37655;SDS011;23498;50.958;3.124;2023-12-28T13:38:25;17.67;;;2.72;;
37655;SDS011;23498;50.958;3.124;2023-12-28T13:40:52;13.30;;;2.92;;
37655;SDS011;23498;50.958;3.124;2023-12-28T13:43:30;17.77;;;2.80;;
37655;SDS011;23498;50.958;3.124;2023-12-28T13:46:08;16.25;;;2.53;;
37655;SDS011;23498;50.958;3.124;2023-12-28T13:49:03;10.40;;;2.10;;
37655;SDS011;23498;50.958;3.124;2023-12-28T13:51:30;16.08;;;2.63;;
37655;SDS011;23498;50.958;3.124;2023-12-28T13:54:06;18.60;;;2.80;;
37655;SDS011;23498;50.958;3.124;2023-12-28T13:56:34;17.00;;;2.70;;
37655;SDS011;23498;50.958;3.124;2023-12-28T13:59:00;16.23;;;2.72;;
37655;SDS011;23498;50.958;3.124;2023-12-28T14:01:36;13.90;;;2.35;;
37655;SDS011;23498;50.958;3.124;2023-12-28T14:04:10;16.02;;;2.70;;
37655;SDS011;23498;50.958;3.124;2023-12-28T14:06:38;12.93;;;2.63;;
37655;SDS011;23498;50.958;3.124;2023-12-28T14:09:22;16.83;;;3.47;;
37655;SDS011;23498;50.958;3.124;2023-12-28T14:11:58;13.98;;;3.03;;
37655;SDS011;23498;50.958;3.124;2023-12-28T14:14:33;16.55;;;2.65;;
37655;SDS011;23498;50.958;3.124;2023-12-28T14:20:01;10.23;;;2.25;;
37655;SDS011;23498;50.958;3.124;2023-12-28T14:25:56;13.93;;;2.65;;
37655;SDS011;23498;50.958;3.124;2023-12-28T14:28:25;12.00;;;2.72;;
37655;SDS011;23498;50.958;3.124;2023-12-28T14:31:02;15.00;;;2.25;;
37655;SDS011;23498;50.958;3.124;2023-12-28T14:33:30;13.65;;;1.95;;
37655;SDS011;23498;50.958;3.124;2023-12-28T14:36:14;12.40;;;2.00;;
37655;SDS011;23498;50.958;3.124;2023-12-28T14:38:47;18.00;;;2.47;;
37655;SDS011;23498;50.958;3.124;2023-12-28T14:41:15;14.70;;;2.50;;
37655;SDS011;23498;50.958;3.124;2023-12-28T14:46:53;12.43;;;1.95;;
37655;SDS011;23498;50.958;3.124;2023-12-28T14:59:50;13.77;;;2.95;;
37655;SDS011;23498;50.958;3.124;2023-12-28T15:02:21;12.07;;;2.03;;
37655;SDS011;23498;50.958;3.124;2023-12-28T15:04:47;12.20;;;2.60;;
37655;SDS011;23498;50.958;3.124;2023-12-28T15:07:13;12.93;;;2.63;;
37655;SDS011;23498;50.958;3.124;2023-12-28T15:09:39;10.32;;;2.00;;
37655;SDS011;23498;50.958;3.124;2023-12-28T15:12:06;11.50;;;2.30;;
37655;SDS011;23498;50.958;3.124;2023-12-28T15:14:37;18.38;;;2.72;;
37655;SDS011;23498;50.958;3.124;2023-12-28T15:17:11;18.38;;;2.60;;
37655;SDS011;23498;50.958;3.124;2023-12-28T15:19:57;7.45;;;1.85;;
37655;SDS011;23498;50.958;3.124;2023-12-28T15:22:23;17.23;;;2.50;;
37655;SDS011;23498;50.958;3.124;2023-12-28T15:24:52;13.55;;;2.53;;
37655;SDS011;23498;50.958;3.124;2023-12-28T15:29:52;14.98;;;2.38;;
37655;SDS011;23498;50.958;3.124;2023-12-28T15:32:25;15.15;;;2.45;;
37655;SDS011;23498;50.958;3.124;2023-12-28T15:35:01;13.82;;;2.50;;
37655;SDS011;23498;50.958;3.124;2023-12-28T15:37:29;20.50;;;2.73;;
37655;SDS011;23498;50.958;3.124;2023-12-28T16:20:37;16.65;;;3.03;;
37655;SDS011;23498;50.958;3.124;2023-12-28T17:24:18;15.32;;;2.70;;
37655;SDS011;23498;50.958;3.124;2023-12-28T17:27:09;13.90;;;3.15;;
37655;SDS011;23498;50.958;3.124;2023-12-28T17:55:14;14.85;;;2.85;;
37655;SDS011;23498;50.958;3.124;2023-12-28T18:07:26;15.57;;;2.53;;
37655;SDS011;23498;50.958;3.124;2023-12-28T18:18:49;10.80;;;2.50;;
37655;SDS011;23498;50.958;3.124;2023-12-28T18:21:34;13.25;;;2.70;;
37655;SDS011;23498;50.958;3.124;2023-12-28T18:30:21;12.77;;;2.55;;
37655;SDS011;23498;50.958;3.124;2023-12-28T18:33:03;13.93;;;2.70;;
37655;SDS011;23498;50.958;3.124;2023-12-28T18:39:00;11.55;;;2.45;;
37655;SDS011;23498;50.958;3.124;2023-12-28T18:44:14;10.50;;;2.30;;
37655;SDS011;23498;50.958;3.124;2023-12-28T18:46:41;12.35;;;3.13;;
37655;SDS011;23498;50.958;3.124;2023-12-28T18:49:29;11.98;;;2.53;;
37655;SDS011;23498;50.958;3.124;2023-12-28T18:51:58;12.07;;;2.40;;
37655;SDS011;23498;50.958;3.124;2023-12-28T18:54:32;10.18;;;3.28;;
37655;SDS011;23498;50.958;3.124;2023-12-28T18:57:05;11.77;;;2.30;;